Darstellungsparameter: Aktuell verwendete Einstellungen:
Skalierung der Graphiken ... ?
xyx+y,   Skalierungsfaktor:      Skalierung: Modus: x, Faktor: 1
Darstellungszeitraum ... ?
Vom - - bis: - -   Zeitraum: 30.06.2022 - 30.06.2022
Min/Max/Avg-Anzeige ... ?
Zeige MMA aktuell
Zeige MMA Monat
Zeige MMA alles
Zeige --A aktuell
Zeige --A Monat
Zeige --A alles
Keine MMA-Anzeige
MMA:
Keine MMA-Graphiken
MMA-Basis: 30.06.2022 - 30.06.2022
Quicknavigation für Darstellung... ?
Tage:      1T, 2T, 3T, 5T -1T -2T -3T -5T +1T +2T +3T +5T
Wochen: 1W, 2W, 3W -1W -2W -3W +1W +2W +3W
Monate: 1M, 3M, 6M -1M -3M -6M +1M +3M +6M
Jahre:    1J, 3J, 5J, 10J -1J -3J -5J -10J +1J +3J +5J +10J
Nutze für die Darstellung ... ?
Originaldaten oder Mittelwerte auf ...
Stundenbasis Tagesbasis Wochenbasis
Monatsbasis Jahresbasis      Datenbasis: Original-Daten
Darstellen als:
Statistik (Auto) Statistik J:M      Darstellung:
Zur Graphik,    zurück zur Übersicht aller Sensoren.
 
Tabellarische Datenbersicht: ?
 
Sensor: Nr:Datum:Temp:Abs-Feuchte:Windchill:Wind:
Aussen-T/F 1 30-06-2022 00:00:00 17.9 C 13.13 g/m*3 17.9 C 0 km/h
2 30-06-2022 00:05:00 17.8 C 13.05 g/m*3 17.8 C 0 km/h
3 30-06-2022 00:10:00 17.8 C 13.05 g/m*3 17.8 C 0 km/h
4 30-06-2022 00:15:00 17.7 C 12.98 g/m*3 17.7 C 0 km/h
5 30-06-2022 00:20:00 17.7 C 13.13 g/m*3 17.7 C 0 km/h
6 30-06-2022 00:25:00 17.6 C 13.05 g/m*3 17.6 C 0 km/h
7 30-06-2022 00:30:00 17.5 C 12.97 g/m*3 17.5 C 0 km/h
8 30-06-2022 00:35:00 17.4 C 12.89 g/m*3 17.4 C 0 km/h
9 30-06-2022 00:40:00 17.4 C 13.04 g/m*3 17.4 C 0 km/h
10 30-06-2022 00:45:00 17.3 C 12.96 g/m*3 17.3 C 0 km/h
11 30-06-2022 00:50:00 17.2 C 12.89 g/m*3 17.2 C 0 km/h
12 30-06-2022 00:55:00 17.1 C 12.81 g/m*3 17.1 C 0 km/h
13 30-06-2022 01:00:00 17.1 C 12.96 g/m*3 17.1 C 0 km/h
14 30-06-2022 01:05:00 16.9 C 12.8 g/m*3 16.9 C 0 km/h
15 30-06-2022 01:10:00 16.9 C 12.8 g/m*3 16.9 C 0 km/h
16 30-06-2022 01:15:00 16.8 C 12.72 g/m*3 16.8 C 0 km/h
17 30-06-2022 01:20:00 16.8 C 12.72 g/m*3 16.8 C 0 km/h
18 30-06-2022 01:25:00 16.8 C 12.87 g/m*3 16.8 C 0 km/h
19 30-06-2022 01:30:00 16.7 C 12.79 g/m*3 16.7 C 0 km/h
20 30-06-2022 01:35:00 16.7 C 12.79 g/m*3 16.7 C 0 km/h
21 30-06-2022 01:40:00 16.6 C 12.71 g/m*3 16.6 C 0 km/h
22 30-06-2022 01:45:00 16.6 C 12.71 g/m*3 16.6 C 0 km/h
23 30-06-2022 01:50:00 16.5 C 12.64 g/m*3 16.5 C 0 km/h
24 30-06-2022 01:55:00 16.4 C 12.7 g/m*3 16.4 C 0 km/h
25 30-06-2022 02:00:00 16.4 C 12.7 g/m*3 16.4 C 0 km/h
Sensor: Nr:Datum:Temp:Abs-Feuchte:Windchill:Wind:
Aussen-T/F 26 30-06-2022 02:05:00 16.4 C 12.7 g/m*3 16.4 C 0 km/h
27 30-06-2022 02:10:00 16.3 C 12.62 g/m*3 16.3 C 0 km/h
28 30-06-2022 02:15:00 16.3 C 12.62 g/m*3 16.3 C 0 km/h
29 30-06-2022 02:20:00 16.3 C 12.62 g/m*3 16.3 C 0 km/h
30 30-06-2022 02:25:00 16.2 C 12.55 g/m*3 16.2 C 0 km/h
31 30-06-2022 02:30:00 16.2 C 12.55 g/m*3 16.2 C 0 km/h
32 30-06-2022 02:35:00 16.2 C 12.69 g/m*3 16.2 C 0 km/h
33 30-06-2022 02:40:00 16.1 C 12.61 g/m*3 16.1 C 0 km/h
34 30-06-2022 02:45:00 16.1 C 12.61 g/m*3 16.1 C 0 km/h
35 30-06-2022 02:50:00 16.1 C 12.61 g/m*3 16.1 C 0 km/h
36 30-06-2022 02:55:00 16.1 C 12.61 g/m*3 16.1 C 0 km/h
37 30-06-2022 03:00:00 16.1 C 12.61 g/m*3 16.1 C 0 km/h
38 30-06-2022 03:05:00 16.2 C 12.82 g/m*3 16.2 C 0 km/h
39 30-06-2022 03:10:00 16.2 C 12.82 g/m*3 16.2 C 0 km/h
40 30-06-2022 03:15:00 16.2 C 12.82 g/m*3 16.2 C 0 km/h
41 30-06-2022 03:20:00 16.1 C 12.75 g/m*3 16.1 C 0 km/h
42 30-06-2022 03:25:00 16.1 C 12.61 g/m*3 16.1 C 0 km/h
43 30-06-2022 03:30:00 16 C 12.67 g/m*3 16 C 0 km/h
44 30-06-2022 03:35:00 16 C 12.67 g/m*3 16 C 0 km/h
45 30-06-2022 03:40:00 16 C 12.67 g/m*3 16 C 0 km/h
46 30-06-2022 03:45:00 16 C 12.67 g/m*3 16 C 0 km/h
47 30-06-2022 03:50:00 16 C 12.67 g/m*3 16 C 0 km/h
48 30-06-2022 03:55:00 15.9 C 12.59 g/m*3 15.9 C 0 km/h
49 30-06-2022 04:00:00 15.9 C 12.59 g/m*3 15.9 C 0 km/h
50 30-06-2022 04:05:00 15.9 C 12.59 g/m*3 15.9 C 0 km/h
Sensor: Nr:Datum:Temp:Abs-Feuchte:Windchill:Wind:
Aussen-T/F 51 30-06-2022 04:10:00 15.8 C 12.52 g/m*3 15.8 C 0 km/h
52 30-06-2022 04:15:00 15.8 C 12.52 g/m*3 15.8 C 0 km/h
53 30-06-2022 04:20:00 15.7 C 12.44 g/m*3 15.7 C 0 km/h
54 30-06-2022 04:25:00 15.7 C 12.44 g/m*3 15.7 C 0 km/h
55 30-06-2022 04:30:00 15.6 C 12.37 g/m*3 15.6 C 0 km/h
56 30-06-2022 04:35:00 15.6 C 12.37 g/m*3 15.6 C 0 km/h
57 30-06-2022 04:40:00 15.5 C 12.29 g/m*3 15.5 C 0 km/h
58 30-06-2022 04:45:00 15.4 C 12.22 g/m*3 15.4 C 0 km/h
59 30-06-2022 04:50:00 15.4 C 12.22 g/m*3 15.4 C 0 km/h
60 30-06-2022 04:55:00 15.3 C 12.14 g/m*3 15.3 C 0 km/h
61 30-06-2022 05:00:00 15.3 C 12.14 g/m*3 15.3 C 0 km/h
62 30-06-2022 05:05:00 15.3 C 12.14 g/m*3 15.3 C 0 km/h
63 30-06-2022 05:10:00 15.2 C 12.07 g/m*3 15.2 C 0 km/h
64 30-06-2022 05:15:00 15.2 C 12.07 g/m*3 15.2 C 0 km/h
65 30-06-2022 05:20:00 15.1 C 12 g/m*3 15.1 C 0 km/h
66 30-06-2022 05:25:00 15.1 C 12 g/m*3 15.1 C 0 km/h
67 30-06-2022 05:30:00 15.1 C 12 g/m*3 15.1 C 0 km/h
68 30-06-2022 05:35:00 15.1 C 12.13 g/m*3 15.1 C 0 km/h
69 30-06-2022 05:40:00 15.1 C 12.13 g/m*3 15.1 C 0 km/h
70 30-06-2022 05:45:00 15.1 C 12.13 g/m*3 15.1 C 0 km/h
71 30-06-2022 05:50:00 15.1 C 12.13 g/m*3 15.1 C 0 km/h
72 30-06-2022 05:55:00 15.1 C 12.13 g/m*3 15.1 C 0 km/h
73 30-06-2022 06:00:00 15.1 C 12.13 g/m*3 15.1 C 0 km/h
74 30-06-2022 06:05:00 15.1 C 12.13 g/m*3 15.1 C 0 km/h
75 30-06-2022 06:10:00 15.1 C 12.13 g/m*3 15.1 C 0 km/h
Sensor: Nr:Datum:Temp:Abs-Feuchte:Windchill:Wind:
Aussen-T/F 76 30-06-2022 06:15:00 15.1 C 12.13 g/m*3 15.1 C 0 km/h
77 30-06-2022 06:20:00 15 C 12.05 g/m*3 15 C 0 km/h
78 30-06-2022 06:25:00 15 C 12.05 g/m*3 15 C 0 km/h
79 30-06-2022 06:30:00 15.1 C 12.13 g/m*3 15.1 C 0 km/h
80 30-06-2022 06:35:00 15.2 C 12.33 g/m*3 15.2 C 0 km/h
81 30-06-2022 06:40:00 15.3 C 12.41 g/m*3 15.3 C 0 km/h
82 30-06-2022 06:45:00 15.4 C 12.48 g/m*3 15.4 C 0 km/h
83 30-06-2022 06:50:00 15.5 C 12.56 g/m*3 15.5 C 0 km/h
84 30-06-2022 06:55:00 15.5 C 12.56 g/m*3 15.5 C 0 km/h
85 30-06-2022 07:00:00 15.5 C 12.56 g/m*3 15.5 C 0 km/h
86 30-06-2022 07:05:00 15.5 C 12.56 g/m*3 15.5 C 0 km/h
87 30-06-2022 07:10:00 15.5 C 12.56 g/m*3 15.5 C 0 km/h
88 30-06-2022 07:15:00 15.5 C 12.56 g/m*3 15.5 C 0 km/h
89 30-06-2022 07:20:00 15.6 C 12.63 g/m*3 15.6 C 0 km/h
90 30-06-2022 07:25:00 15.6 C 12.63 g/m*3 15.6 C 0 km/h
91 30-06-2022 07:30:00 15.6 C 12.63 g/m*3 15.6 C 0 km/h
92 30-06-2022 07:35:00 15.7 C 12.71 g/m*3 15.7 C 0 km/h
93 30-06-2022 07:40:00 15.7 C 12.71 g/m*3 15.7 C 1.6 km/h
94 30-06-2022 07:45:00 15.9 C 12.87 g/m*3 15.9 C 0 km/h
95 30-06-2022 07:50:00 16.1 C 13.02 g/m*3 16.1 C 4.8 km/h
96 30-06-2022 07:55:00 16.2 C 13.24 g/m*3 16.2 C 1.6 km/h
97 30-06-2022 08:00:00 16.3 C 13.32 g/m*3 16.3 C 4.8 km/h
98 30-06-2022 08:05:00 16.4 C 13.4 g/m*3 16.4 C 0 km/h
99 30-06-2022 08:10:00 16.5 C 13.48 g/m*3 16.5 C 0 km/h
100 30-06-2022 08:15:00 16.6 C 13.56 g/m*3 16.6 C 0 km/h
Sensor: Nr:Datum:Temp:Abs-Feuchte:Windchill:Wind:
Aussen-T/F 101 30-06-2022 08:20:00 16.6 C 13.56 g/m*3 16.6 C 1.6 km/h
102 30-06-2022 08:25:00 16.7 C 13.5 g/m*3 16.7 C 0 km/h
103 30-06-2022 08:30:00 16.7 C 13.5 g/m*3 16.7 C 0 km/h
104 30-06-2022 08:35:00 16.8 C 13.58 g/m*3 16.8 C 0 km/h
105 30-06-2022 08:40:00 16.8 C 13.73 g/m*3 16.8 C 0 km/h
106 30-06-2022 08:45:00 16.9 C 13.81 g/m*3 16.9 C 0 km/h
107 30-06-2022 08:50:00 17 C 13.89 g/m*3 17 C 0 km/h
108 30-06-2022 08:55:00 17.1 C 13.83 g/m*3 17.1 C 0 km/h
109 30-06-2022 09:00:00 17.2 C 13.91 g/m*3 17.2 C 0 km/h
110 30-06-2022 09:05:00 17.4 C 14.23 g/m*3 17.4 C 0 km/h
111 30-06-2022 09:10:00 17.7 C 14.48 g/m*3 17.7 C 0 km/h
112 30-06-2022 09:15:00 17.9 C 14.66 g/m*3 17.9 C 0 km/h
113 30-06-2022 09:20:00 18.2 C 14.92 g/m*3 18.2 C 0 km/h
114 30-06-2022 09:25:00 18.4 C 15.1 g/m*3 18.4 C 0 km/h
115 30-06-2022 09:30:00 18.7 C 15.37 g/m*3 18.7 C 0 km/h
116 30-06-2022 09:35:00 18.9 C 15.39 g/m*3 18.9 C 0 km/h
117 30-06-2022 09:40:00 19.2 C 15.66 g/m*3 19.2 C 0 km/h
118 30-06-2022 09:45:00 19.4 C 15.68 g/m*3 19.4 C 0 km/h
119 30-06-2022 09:50:00 19.6 C 15.87 g/m*3 19.6 C 0 km/h
120 30-06-2022 09:55:00 19.8 C 16.06 g/m*3 19.8 C 0 km/h
121 30-06-2022 10:00:00 20 C 16.07 g/m*3 20 C 0 km/h
122 30-06-2022 10:05:00 20.2 C 16.26 g/m*3 20.2 C 0 km/h
123 30-06-2022 10:10:00 20.4 C 16.45 g/m*3 20.4 C 0 km/h
124 30-06-2022 10:15:00 20.6 C 16.47 g/m*3 20.6 C 0 km/h
125 30-06-2022 10:20:00 20.9 C 16.76 g/m*3 20.9 C 0 km/h
Sensor: Nr:Datum:Temp:Abs-Feuchte:Windchill:Wind:
Aussen-T/F 126 30-06-2022 10:25:00 21.3 C 16.96 g/m*3 21.3 C 0 km/h
127 30-06-2022 10:30:00 21.6 C 17.07 g/m*3 21.6 C 0 km/h
128 30-06-2022 10:35:00 21.8 C 17.27 g/m*3 21.8 C 0 km/h
129 30-06-2022 10:40:00 22.2 C 17.67 g/m*3 22.2 C 0 km/h
130 30-06-2022 10:45:00 22.4 C 17.68 g/m*3 22.4 C 0 km/h
131 30-06-2022 10:50:00 22.7 C 17.78 g/m*3 22.7 C 0 km/h
132 30-06-2022 10:55:00 23.1 C 17.98 g/m*3 23.1 C 0 km/h
133 30-06-2022 11:00:00 23.4 C 18.08 g/m*3 23.4 C 0 km/h
134 30-06-2022 11:05:00 23.7 C 17.75 g/m*3 23.7 C 0 km/h
135 30-06-2022 11:10:00 24.1 C 17.94 g/m*3 24.1 C 0 km/h
136 30-06-2022 11:15:00 24.5 C 18.35 g/m*3 24.5 C 0 km/h
137 30-06-2022 11:20:00 24.9 C 18.54 g/m*3 24.9 C 0 km/h
138 30-06-2022 11:25:00 25.3 C 18.73 g/m*3 25.3 C 0 km/h
139 30-06-2022 11:30:00 25.6 C 18.57 g/m*3 25.6 C 0 km/h
140 30-06-2022 11:35:00 25.7 C 18.43 g/m*3 25.7 C 0 km/h
141 30-06-2022 11:40:00 25.8 C 18.54 g/m*3 25.8 C 0 km/h
142 30-06-2022 11:45:00 26.1 C 18.36 g/m*3 26.1 C 0 km/h
143 30-06-2022 11:50:00 26.3 C 19.06 g/m*3 26.3 C 0 km/h
144 30-06-2022 11:55:00 26.3 C 18.81 g/m*3 26.3 C 0 km/h
145 30-06-2022 12:00:00 26.2 C 18.46 g/m*3 26.2 C 0 km/h
146 30-06-2022 12:05:00 26.2 C 18.46 g/m*3 26.2 C 0 km/h
147 30-06-2022 12:10:00 26.2 C 18.46 g/m*3 26.2 C 0 km/h
148 30-06-2022 12:15:00 26.3 C 18.07 g/m*3 26.3 C 0 km/h
149 30-06-2022 12:20:00 26.4 C 16.93 g/m*3 26.4 C 0 km/h
150 30-06-2022 12:25:00 26.8 C 17.31 g/m*3 26.8 C 0 km/h
Sensor: Nr:Datum:Temp:Abs-Feuchte:Windchill:Wind:
Aussen-T/F 151 30-06-2022 12:30:00 27.1 C 17.86 g/m*3 27.1 C 0 km/h
152 30-06-2022 12:35:00 27 C 17.5 g/m*3 27 C 0 km/h
153 30-06-2022 12:40:00 26.9 C 17.92 g/m*3 26.9 C 0 km/h
154 30-06-2022 12:45:00 26.8 C 17.31 g/m*3 26.8 C 0 km/h
155 30-06-2022 12:50:00 26.8 C 16.8 g/m*3 26.8 C 3.2 km/h
156 30-06-2022 12:55:00 27.2 C 14.83 g/m*3 27.2 C 4.8 km/h
157 30-06-2022 13:00:00 28 C 14.14 g/m*3 28 C 6.4 km/h
158 30-06-2022 13:05:00 28.7 C 14.69 g/m*3 28.7 C 8.1 km/h
159 30-06-2022 13:10:00 29.3 C 15.47 g/m*3 29.3 C 6.4 km/h
160 30-06-2022 13:15:00 29.6 C 16.91 g/m*3 29.6 C 3.2 km/h
161 30-06-2022 13:20:00 29.7 C 15.22 g/m*3 29.7 C 4.8 km/h
162 30-06-2022 13:25:00 29.9 C 14.78 g/m*3 29.9 C 1.6 km/h
163 30-06-2022 13:30:00 30.1 C 14.02 g/m*3 30.1 C 6.4 km/h
164 30-06-2022 13:35:00 30 C 16.38 g/m*3 30 C 4.8 km/h
165 30-06-2022 13:40:00 29.9 C 18.1 g/m*3 29.9 C 0 km/h
166 30-06-2022 13:45:00 29.6 C 14.84 g/m*3 29.6 C 0 km/h
167 30-06-2022 13:50:00 29.6 C 14.24 g/m*3 29.6 C 0 km/h
168 30-06-2022 13:55:00 29.8 C 14.4 g/m*3 29.8 C 1.6 km/h
169 30-06-2022 14:00:00 30.1 C 13.11 g/m*3 30.1 C 8.1 km/h
170 30-06-2022 14:05:00 30.1 C 13.42 g/m*3 30.1 C 11.3 km/h
171 30-06-2022 14:10:00 30.2 C 12.87 g/m*3 30.2 C 12.9 km/h
172 30-06-2022 14:15:00 30.2 C 12.87 g/m*3 30.2 C 3.2 km/h
173 30-06-2022 14:20:00 30.2 C 17.17 g/m*3 30.2 C 4.8 km/h
174 30-06-2022 14:25:00 30.2 C 16.55 g/m*3 30.2 C 8.1 km/h
175 30-06-2022 14:30:00 30.4 C 13.63 g/m*3 30.4 C 9.7 km/h
Sensor: Nr:Datum:Temp:Abs-Feuchte:Windchill:Wind:
Aussen-T/F 176 30-06-2022 14:35:00 30.7 C 14.17 g/m*3 30.7 C 9.7 km/h
177 30-06-2022 14:40:00 31.1 C 12.87 g/m*3 31.1 C 8.1 km/h
178 30-06-2022 14:45:00 31.3 C 13.33 g/m*3 31.3 C 6.4 km/h
179 30-06-2022 14:50:00 31.6 C 13.88 g/m*3 31.6 C 9.7 km/h
180 30-06-2022 14:55:00 31.9 C 12.76 g/m*3 31.9 C 8.1 km/h
181 30-06-2022 15:00:00 31.9 C 13.1 g/m*3 31.9 C 8.1 km/h
182 30-06-2022 15:05:00 31.9 C 12.76 g/m*3 31.9 C 11.3 km/h
183 30-06-2022 15:10:00 31.9 C 12.76 g/m*3 31.9 C 9.7 km/h
184 30-06-2022 15:15:00 31.9 C 12.76 g/m*3 31.9 C 8.1 km/h
185 30-06-2022 15:20:00 32.1 C 13.24 g/m*3 32.1 C 11.3 km/h
186 30-06-2022 15:25:00 31.9 C 12.76 g/m*3 31.9 C 11.3 km/h
187 30-06-2022 15:30:00 31.7 C 12.96 g/m*3 31.7 C 11.3 km/h
188 30-06-2022 15:35:00 31.8 C 12.69 g/m*3 31.8 C 9.7 km/h
189 30-06-2022 15:40:00 32 C 13.17 g/m*3 32 C 6.4 km/h
190 30-06-2022 15:45:00 32.1 C 12.9 g/m*3 32.1 C 8.1 km/h
191 30-06-2022 15:50:00 31.9 C 13.1 g/m*3 31.9 C 6.4 km/h
192 30-06-2022 15:55:00 31.9 C 13.1 g/m*3 31.9 C 9.7 km/h
193 30-06-2022 16:00:00 31.8 C 16.03 g/m*3 31.8 C 4.8 km/h
194 30-06-2022 16:05:00 31.5 C 14.13 g/m*3 31.5 C 4.8 km/h
195 30-06-2022 16:10:00 31.5 C 14.13 g/m*3 31.5 C 1.6 km/h
196 30-06-2022 16:15:00 31.7 C 13.95 g/m*3 31.7 C 6.4 km/h
197 30-06-2022 16:20:00 31.9 C 12.42 g/m*3 31.9 C 12.9 km/h
198 30-06-2022 16:25:00 32.1 C 13.24 g/m*3 32.1 C 4.8 km/h
199 30-06-2022 16:30:00 31.9 C 14.78 g/m*3 31.9 C 6.4 km/h
200 30-06-2022 16:35:00 31.8 C 13.36 g/m*3 31.8 C 6.4 km/h
Sensor: Nr:Datum:Temp:Abs-Feuchte:Windchill:Wind:
Aussen-T/F 201 30-06-2022 16:40:00 31.9 C 15.78 g/m*3 31.9 C 4.8 km/h
202 30-06-2022 16:45:00 32 C 14.52 g/m*3 32 C 0 km/h
203 30-06-2022 16:50:00 31.9 C 17.13 g/m*3 31.9 C 1.6 km/h
204 30-06-2022 16:55:00 31.5 C 17.09 g/m*3 31.5 C 1.6 km/h
205 30-06-2022 17:00:00 31.4 C 14.39 g/m*3 31.4 C 4.8 km/h
206 30-06-2022 17:05:00 31.8 C 16.37 g/m*3 31.8 C 4.8 km/h
207 30-06-2022 17:10:00 31.8 C 17.37 g/m*3 31.8 C 4.8 km/h
208 30-06-2022 17:15:00 31.4 C 16.35 g/m*3 31.4 C 1.6 km/h
209 30-06-2022 17:20:00 31.5 C 13.81 g/m*3 31.5 C 4.8 km/h
210 30-06-2022 17:25:00 31.9 C 13.1 g/m*3 31.9 C 4.8 km/h
211 30-06-2022 17:30:00 32.3 C 13.38 g/m*3 32.3 C 8.1 km/h
212 30-06-2022 17:35:00 32.5 C 12.48 g/m*3 32.5 C 12.9 km/h
213 30-06-2022 17:40:00 32.4 C 12.76 g/m*3 32.4 C 12.9 km/h
214 30-06-2022 17:45:00 32.4 C 12.41 g/m*3 32.4 C 9.7 km/h
215 30-06-2022 17:50:00 32.6 C 12.55 g/m*3 32.6 C 8.1 km/h
216 30-06-2022 17:55:00 32.8 C 12.68 g/m*3 32.8 C 6.4 km/h
217 30-06-2022 18:00:00 33.1 C 12.17 g/m*3 33.1 C 8.1 km/h
218 30-06-2022 18:05:00 33.2 C 12.59 g/m*3 33.2 C 11.3 km/h
219 30-06-2022 18:10:00 33.4 C 12 g/m*3 33.4 C 4.8 km/h
220 30-06-2022 18:15:00 33.4 C 12.36 g/m*3 33.4 C 4.8 km/h
221 30-06-2022 18:20:00 33.4 C 12 g/m*3 33.4 C 12.9 km/h
222 30-06-2022 18:25:00 33 C 12.1 g/m*3 33 C 9.7 km/h
223 30-06-2022 18:30:00 32.9 C 12.75 g/m*3 32.9 C 4.8 km/h
224 30-06-2022 18:35:00 32.8 C 12.68 g/m*3 32.8 C 8.1 km/h
225 30-06-2022 18:40:00 32.7 C 12.26 g/m*3 32.7 C 3.2 km/h
Sensor: Nr:Datum:Temp:Abs-Feuchte:Windchill:Wind:
Aussen-T/F 226 30-06-2022 18:45:00 32.6 C 12.2 g/m*3 32.6 C 6.4 km/h
227 30-06-2022 18:50:00 32.3 C 13.03 g/m*3 32.3 C 4.8 km/h
228 30-06-2022 18:55:00 31.9 C 11.75 g/m*3 31.9 C 6.4 km/h
229 30-06-2022 19:00:00 31.6 C 14.54 g/m*3 31.6 C 6.4 km/h
230 30-06-2022 19:05:00 31.3 C 15.61 g/m*3 31.3 C 6.4 km/h
231 30-06-2022 19:10:00 30.9 C 15.6 g/m*3 30.9 C 1.6 km/h
232 30-06-2022 19:15:00 30.6 C 16.29 g/m*3 30.6 C 1.6 km/h
233 30-06-2022 19:20:00 30.1 C 15.24 g/m*3 30.1 C 1.6 km/h
234 30-06-2022 19:25:00 29.6 C 15.73 g/m*3 29.6 C 3.2 km/h
235 30-06-2022 19:30:00 29 C 15.8 g/m*3 29 C 3.2 km/h
236 30-06-2022 19:35:00 28.4 C 14.73 g/m*3 28.4 C 3.2 km/h
237 30-06-2022 19:40:00 27.8 C 14.79 g/m*3 27.8 C 4.8 km/h
238 30-06-2022 19:45:00 27 C 13.64 g/m*3 27 C 16.1 km/h
239 30-06-2022 19:50:00 26.4 C 14.19 g/m*3 26.4 C 16.1 km/h
240 30-06-2022 19:55:00 26.2 C 14.77 g/m*3 26.2 C 4.8 km/h
241 30-06-2022 20:00:00 26.1 C 14.44 g/m*3 26.1 C 4.8 km/h
242 30-06-2022 20:05:00 25.9 C 14.77 g/m*3 25.9 C 17.7 km/h
243 30-06-2022 20:10:00 25.7 C 15.32 g/m*3 25.7 C 24.1 km/h
244 30-06-2022 20:15:00 25.1 C 15.28 g/m*3 25.1 C 27.4 km/h
245 30-06-2022 20:20:00 24.2 C 15.4 g/m*3 24.2 C 27.4 km/h
246 30-06-2022 20:25:00 23 C 14.59 g/m*3 23 C 24.1 km/h
247 30-06-2022 20:30:00 22 C 14.17 g/m*3 22 C 17.7 km/h
248 30-06-2022 20:35:00 21.4 C 14.44 g/m*3 21.4 C 16.1 km/h
249 30-06-2022 20:40:00 20.9 C 14.21 g/m*3 20.9 C 8.1 km/h
250 30-06-2022 20:45:00 20.6 C 14.32 g/m*3 20.6 C 11.3 km/h
Sensor: Nr:Datum:Temp:Abs-Feuchte:Windchill:Wind:
Aussen-T/F 251 30-06-2022 20:50:00 20.2 C 14.16 g/m*3 20.2 C 11.3 km/h
252 30-06-2022 20:55:00 19.9 C 13.92 g/m*3 19.9 C 12.9 km/h
253 30-06-2022 21:00:00 19.6 C 13.67 g/m*3 19.6 C 16.1 km/h
254 30-06-2022 21:05:00 19.3 C 13.44 g/m*3 19.3 C 11.3 km/h
255 30-06-2022 21:10:00 19.1 C 12.95 g/m*3 19.1 C 12.9 km/h
256 30-06-2022 21:15:00 19 C 12.71 g/m*3 19 C 16.1 km/h
257 30-06-2022 21:20:00 18.9 C 12.64 g/m*3 18.9 C 9.7 km/h
258 30-06-2022 21:25:00 18.9 C 12.8 g/m*3 18.9 C 8.1 km/h
259 30-06-2022 21:30:00 18.9 C 12.8 g/m*3 18.9 C 11.3 km/h
260 30-06-2022 21:35:00 18.8 C 12.72 g/m*3 18.8 C 16.1 km/h
261 30-06-2022 21:40:00 18.6 C 12.26 g/m*3 18.6 C 14.5 km/h
262 30-06-2022 21:45:00 18.4 C 12.27 g/m*3 18.4 C 12.9 km/h
263 30-06-2022 21:50:00 18.2 C 12.28 g/m*3 18.2 C 9.7 km/h
264 30-06-2022 21:55:00 18.1 C 12.36 g/m*3 18.1 C 11.3 km/h
265 30-06-2022 22:00:00 18 C 12.29 g/m*3 18 C 8.1 km/h
266 30-06-2022 22:05:00 17.9 C 12.21 g/m*3 17.9 C 9.7 km/h
267 30-06-2022 22:10:00 17.8 C 12.14 g/m*3 17.8 C 6.4 km/h
268 30-06-2022 22:15:00 17.8 C 12.14 g/m*3 17.8 C 8.1 km/h
269 30-06-2022 22:20:00 17.7 C 12.07 g/m*3 17.7 C 8.1 km/h
270 30-06-2022 22:25:00 17.7 C 12.22 g/m*3 17.7 C 4.8 km/h
271 30-06-2022 22:30:00 17.7 C 12.07 g/m*3 17.7 C 4.8 km/h
272 30-06-2022 22:35:00 17.6 C 12.15 g/m*3 17.6 C 6.4 km/h
273 30-06-2022 22:40:00 17.5 C 12.23 g/m*3 17.5 C 6.4 km/h
274 30-06-2022 22:45:00 17.3 C 12.23 g/m*3 17.3 C 8.1 km/h
275 30-06-2022 22:50:00 17.2 C 12.15 g/m*3 17.2 C 8.1 km/h
Sensor: Nr:Datum:Temp:Abs-Feuchte:Windchill:Wind:
Aussen-T/F 276 30-06-2022 22:55:00 17.1 C 12.23 g/m*3 17.1 C 3.2 km/h
277 30-06-2022 23:00:00 16.9 C 12.08 g/m*3 16.9 C 4.8 km/h
278 30-06-2022 23:05:00 16.9 C 12.23 g/m*3 16.9 C 3.2 km/h
279 30-06-2022 23:10:00 16.8 C 12.3 g/m*3 16.8 C 1.6 km/h
280 30-06-2022 23:15:00 16.7 C 12.36 g/m*3 16.7 C 3.2 km/h
281 30-06-2022 23:20:00 16.6 C 12.29 g/m*3 16.6 C 3.2 km/h
282 30-06-2022 23:25:00 16.4 C 12.14 g/m*3 16.4 C 3.2 km/h
283 30-06-2022 23:30:00 16.3 C 12.21 g/m*3 16.3 C 0 km/h
284 30-06-2022 23:35:00 16.2 C 12.14 g/m*3 16.2 C 0 km/h
285 30-06-2022 23:40:00 16.1 C 12.2 g/m*3 16.1 C 0 km/h
286 30-06-2022 23:45:00 15.9 C 12.05 g/m*3 15.9 C 6.4 km/h
287 30-06-2022 23:50:00 15.8 C 12.11 g/m*3 15.8 C 6.4 km/h
288 30-06-2022 23:55:00 15.8 C 12.11 g/m*3 15.8 C 1.6 km/h

Legende:
   Min
   Max


Maximal/Minimal-Werte vom 30.06.2022 - 30.06.2022

Sensor Min Max Avg
Temp
(Aussen-T/F)
15 °C
30-06-2022  06:20:00
33.4 °C
30-06-2022  18:10:00
22.1 °C
Abs-Feuchte
(Aussen-T/F)
11.75 g/m*3
30-06-2022  18:55:00
19.06 g/m*3
30-06-2022  11:50:00
13.79 g/m*3
Windchill
(Aussen-T/F)
15 C
30-06-2022  06:20:00
33.4 C
30-06-2022  18:10:00
22.02 C

Die Daten stammen von einer Davis Vantage Pro 2 Wetter-Station und werden unter Linux mit der Software wview2wettercgi und aufbereitet. Alle Angaben erfolgen ohne Gewähr für ihre Vollständigkeit oder Richtigkeit.
Kontakt: Rainer Krienke krienke@uni-koblenz.de . Meine Webseiten an der Uni Koblenz oder privat.
Version: $Revision: 0.78 $